createdAt,value
2022-12-12T00:04:32.409Z,34
2022-12-12T00:10:17.217Z,30
2022-12-12T00:16:28.688Z,29
2022-12-12T00:22:18.163Z,28
2022-12-12T00:28:09.791Z,28
2022-12-12T00:34:21.394Z,27
2022-12-12T00:40:46.636Z,25
2022-12-12T00:46:36.268Z,32
2022-12-12T00:52:42.046Z,28
2022-12-12T00:58:28.622Z,26
2022-12-12T01:04:21.774Z,23
2022-12-12T01:10:30.071Z,24
2022-12-12T01:16:27.896Z,29
2022-12-12T01:22:19.429Z,25
2022-12-12T01:28:17.064Z,17
2022-12-12T01:34:12.144Z,17
2022-12-12T01:40:20.694Z,15
2022-12-12T01:46:17.212Z,14
2022-12-12T01:52:05.669Z,17
2022-12-12T01:58:11.874Z,14
2022-12-12T02:04:17.316Z,18
2022-12-12T02:10:11.853Z,15
2022-12-12T02:16:11.466Z,17
2022-12-12T02:22:04.223Z,13
2022-12-12T02:28:03.276Z,13
2022-12-12T02:34:02.707Z,13
2022-12-12T02:40:08.139Z,17
2022-12-12T02:46:03.133Z,16
2022-12-12T02:52:06.292Z,17
2022-12-12T02:58:18.557Z,19
2022-12-12T03:04:07.414Z,19
2022-12-12T03:10:07.257Z,16
2022-12-12T03:16:04.028Z,15
2022-12-12T03:22:06.410Z,16
2022-12-12T03:28:05.278Z,14
2022-12-12T03:34:05.517Z,14
2022-12-12T03:40:02.736Z,16
2022-12-12T03:46:03.156Z,13
2022-12-12T03:52:02.796Z,17
2022-12-12T03:58:02.514Z,18
2022-12-12T04:04:02.723Z,18
2022-12-12T04:10:03.156Z,17
2022-12-12T04:16:01.967Z,20
2022-12-12T04:22:01.865Z,18
2022-12-12T04:28:02.140Z,17
2022-12-12T04:34:02.331Z,16
2022-12-12T04:40:02.765Z,15
2022-12-12T04:46:02.949Z,18
2022-12-12T04:52:03.411Z,18
2022-12-12T04:58:02.197Z,20
2022-12-12T05:04:02.455Z,20
2022-12-12T05:10:03.794Z,20
2022-12-12T05:16:02.437Z,18
2022-12-12T05:22:03.286Z,18
2022-12-12T05:28:02.416Z,17
2022-12-12T05:34:03.127Z,15
2022-12-12T05:40:10.381Z,17
2022-12-12T05:46:10.567Z,22
2022-12-12T05:52:20.507Z,19
2022-12-12T05:58:21.674Z,17
2022-12-12T06:04:27.828Z,18
2022-12-12T06:10:45.210Z,16
2022-12-12T06:16:05.300Z,17
2022-12-12T06:22:29.283Z,16
2022-12-12T06:28:32.122Z,21
2022-12-12T06:34:29.721Z,17
2022-12-12T06:40:25.637Z,17
2022-12-12T06:46:13.650Z,15
2022-12-12T06:52:07.255Z,17
2022-12-12T06:58:12.308Z,15
2022-12-12T07:04:19.777Z,16
2022-12-12T07:10:07.722Z,17
2022-12-12T07:16:18.872Z,15
2022-12-12T07:22:10.519Z,15
2022-12-12T07:28:19.385Z,15
2022-12-12T07:34:16.216Z,20
2022-12-12T07:40:20.330Z,19
2022-12-12T07:46:13.783Z,16
2022-12-12T07:52:18.138Z,17
2022-12-12T07:58:12.206Z,15
2022-12-12T08:04:13.100Z,14
2022-12-12T08:10:27.277Z,16
2022-12-12T08:16:35.475Z,16
2022-12-12T08:22:09.283Z,16
2022-12-12T08:28:16.955Z,15
2022-12-12T08:34:17.921Z,16
2022-12-12T08:40:28.769Z,16
2022-12-12T08:46:18.174Z,16
2022-12-12T08:52:15.063Z,18
2022-12-12T08:58:23.524Z,20
2022-12-12T09:04:08.580Z,18
2022-12-12T09:10:22.789Z,16
2022-12-12T09:16:16.394Z,19
2022-12-12T09:22:23.904Z,18
2022-12-12T09:28:16.226Z,15
2022-12-12T09:34:08.646Z,14
2022-12-12T09:40:08.989Z,14
2022-12-12T09:46:10.560Z,14
2022-12-12T09:52:04.805Z,16
2022-12-12T09:58:05.981Z,19
2022-12-12T10:04:06.312Z,19
2022-12-12T10:10:06.662Z,19
2022-12-12T10:16:06.766Z,16
2022-12-12T10:22:08.964Z,19
2022-12-12T10:28:08.630Z,18
2022-12-12T10:34:07.382Z,15
2022-12-12T10:40:04.895Z,16
2022-12-12T10:46:03.892Z,17
2022-12-12T10:52:03.252Z,16
2022-12-12T10:58:09.774Z,16
2022-12-12T11:04:15.467Z,14
2022-12-12T11:10:20.751Z,15
2022-12-12T11:16:12.946Z,15
2022-12-12T11:22:15.882Z,13
2022-12-12T11:28:15.274Z,16
2022-12-12T11:34:14.968Z,13
2022-12-12T11:40:32.557Z,17
2022-12-12T11:46:11.398Z,16
2022-12-12T11:52:07.582Z,16
2022-12-12T11:58:05.598Z,14
2022-12-12T12:04:05.726Z,15
2022-12-12T12:10:03.951Z,15
2022-12-12T12:16:04.861Z,15
2022-12-12T12:22:02.656Z,19
2022-12-12T12:28:02.455Z,19
2022-12-12T12:34:03.540Z,16
2022-12-12T12:40:07.945Z,14
2022-12-12T12:46:03.050Z,15
2022-12-12T12:52:03.535Z,17
2022-12-12T12:58:04.616Z,17
2022-12-12T13:04:06.953Z,16
2022-12-12T13:10:06.547Z,16
2022-12-12T13:16:04.436Z,13
2022-12-12T13:22:05.495Z,13
2022-12-12T13:28:03.918Z,16
2022-12-12T13:34:05.922Z,14
2022-12-12T13:40:14.400Z,16
2022-12-12T13:46:10.277Z,18
2022-12-12T13:52:02.714Z,18
2022-12-12T13:58:02.267Z,18
2022-12-12T14:04:08.535Z,18
2022-12-12T14:10:06.547Z,18
2022-12-12T14:16:05.619Z,17
2022-12-12T14:22:09.511Z,16
2022-12-12T14:28:04.610Z,20
2022-12-12T14:34:03.706Z,18
2022-12-12T14:40:04.557Z,18
2022-12-12T14:46:07.245Z,16
2022-12-12T14:52:05.098Z,14
2022-12-12T14:58:04.336Z,16
2022-12-12T15:04:10.126Z,16
2022-12-12T15:10:10.985Z,20
2022-12-12T15:16:11.488Z,15
2022-12-12T15:22:08.278Z,17
2022-12-12T15:28:13.490Z,17
2022-12-12T15:34:10.088Z,18
2022-12-12T15:40:14.345Z,14
2022-12-12T15:46:16.061Z,17
2022-12-12T15:52:05.821Z,19
2022-12-12T15:58:08.480Z,17
2022-12-12T16:04:04.337Z,24
2022-12-12T16:10:07.504Z,24
2022-12-12T16:16:02.718Z,24
2022-12-12T16:22:03.510Z,20
2022-12-12T16:28:03.032Z,21
2022-12-12T16:34:02.908Z,24
2022-12-12T16:40:05.649Z,20
2022-12-12T16:46:05.117Z,22
2022-12-12T16:52:03.262Z,22
2022-12-12T16:58:02.688Z,29
2022-12-12T17:04:02.817Z,24
2022-12-12T17:10:03.092Z,25
2022-12-12T17:16:03.565Z,33
2022-12-12T17:22:04.376Z,29
2022-12-12T17:28:03.109Z,29
2022-12-12T17:34:03.446Z,30
2022-12-12T17:40:03.661Z,32
2022-12-12T17:46:02.646Z,30
2022-12-12T17:52:02.709Z,29
2022-12-12T17:58:02.604Z,30
2022-12-12T18:04:02.785Z,28
2022-12-12T18:10:04.607Z,32
2022-12-12T18:16:05.386Z,29
2022-12-12T18:22:02.913Z,26
2022-12-12T18:28:03.360Z,29
2022-12-12T18:34:04.413Z,32
2022-12-12T18:40:04.177Z,32
2022-12-12T18:46:02.766Z,32
2022-12-12T18:52:03.446Z,36
2022-12-12T18:58:03.197Z,32
2022-12-12T19:04:07.457Z,29
2022-12-12T19:10:07.026Z,29
2022-12-12T19:16:02.576Z,29
2022-12-12T19:22:18.616Z,32
2022-12-12T19:28:03.602Z,28
2022-12-12T19:34:03.689Z,34
2022-12-12T19:40:04.307Z,31
2022-12-12T19:46:02.856Z,34
2022-12-12T19:52:02.686Z,30
2022-12-12T19:58:04.186Z,29
2022-12-12T20:04:03.383Z,32
2022-12-12T20:10:03.777Z,30
2022-12-12T20:16:02.800Z,38
2022-12-12T20:22:03.563Z,33
2022-12-12T20:28:02.684Z,30
2022-12-12T20:34:03.418Z,30
2022-12-12T20:40:03.564Z,33
2022-12-12T20:46:02.695Z,30
2022-12-12T20:52:02.626Z,34
2022-12-12T20:58:02.675Z,36
2022-12-12T21:04:03.905Z,27
2022-12-12T21:10:04.309Z,30
2022-12-12T21:16:03.954Z,30
2022-12-12T21:22:03.131Z,31
2022-12-12T21:28:03.482Z,29
2022-12-12T21:34:04.328Z,34
2022-12-12T21:40:04.270Z,29
2022-12-12T21:46:03.649Z,28
2022-12-12T21:52:02.993Z,33
2022-12-12T21:58:03.153Z,32
2022-12-12T22:04:03.851Z,33
2022-12-12T22:10:10.776Z,31
2022-12-12T22:16:03.259Z,36
2022-12-12T22:22:03.736Z,34
2022-12-12T22:28:02.568Z,33
2022-12-12T22:34:03.011Z,35
2022-12-12T22:40:04.125Z,33
2022-12-12T22:46:02.830Z,31
2022-12-12T22:52:05.923Z,32
2022-12-12T22:58:03.907Z,36
2022-12-12T23:04:03.116Z,35
2022-12-12T23:10:04.186Z,37
2022-12-12T23:16:44.772Z,34
2022-12-12T23:22:15.798Z,37
2022-12-12T23:28:33.098Z,32
2022-12-12T23:34:24.162Z,34
2022-12-12T23:40:28.549Z,35
2022-12-12T23:46:24.868Z,29
2022-12-12T23:52:09.211Z,32
2022-12-12T23:58:22.180Z,34
